• Join FlightAware (Why Join?)
  • Login
  • US Flag 
11:50PM EDT


 

Airport Tracker/Info


-or-


 

Live Flight TrackerFlight Track Log ✈ JZA8745 ✈ 16-May-2013 ✈ CZBF - CYUL

Flight Track Log - Related Links

Times and Time Zones

All times are in EDT time to prevent confusion due to time zone crossing. See the JZA8745 flight status page for this flight to view local times or setup timezone preferences in your user account.

Time Position Orientation Groundspeed Altitude Reporting Facility
EDT Latitude Longitude Course Direction KTS MPH feet Rate Location/Type
02:55PM 47.5500 -65.7833 254° West 190 219 4,600  Level Moncton Center
02:56PM 47.5333 -65.8667 254° West 160 184 6,000 1,320 Climbing Moncton Center
02:57PM 47.5167 -65.9167 244° Southwest 160 184 7,300 1,380 Climbing Moncton Center
02:58PM 47.5000 -65.9833 250° West 150 173 8,800 1,320 Climbing Moncton Center
02:59PM 47.4833 -66.0333 244° Southwest 160 184 10,000 1,200 Climbing Moncton Center
03:00PM 47.4500 -66.0833 225° Southwest 150 173 11,200 1,140 Climbing Moncton Center
03:01PM 47.4333 -66.1500 250° West 160 184 12,300 1,080 Climbing Moncton Center
03:02PM 47.4167 -66.2000 244° Southwest 170 196 13,400 1,020 Climbing Moncton Center
03:03PM 47.4000 -66.2833 254° West 180 207 14,400 1,080 Climbing Moncton Center
03:04PM 47.3833 -66.3500 250° West 180 207 15,600 1,200 Climbing Moncton Center
03:05PM 47.3500 -66.4167 234° Southwest 180 207 16,900 1,080 Climbing Moncton Center
03:06PM 47.3333 -66.4667 244° Southwest 170 196 17,800 1,020 Climbing Moncton Center
03:07PM 47.3167 -66.5500 254° West 180 207 19,000 1,020 Climbing Moncton Center
03:08PM 47.3000 -66.6167 250° West 180 207 19,900 840 Climbing Moncton Center
03:09PM 47.2667 -66.6667 226° Southwest 190 219 20,700 780 Climbing Moncton Center
03:10PM 47.2333 -66.7333 234° Southwest 190 219 21,500 600 Climbing Moncton Center
03:11PM 47.2000 -66.8167 240° Southwest 190 219 22,000 240 Climbing Moncton Center
03:12PM 47.1833 -66.8833 250° West 210 242 22,000  Level Moncton Center
03:13PM 47.1500 -66.9833 244° Southwest 230 265 22,000  Level Moncton Center
03:14PM 47.1333 -67.0833 256° West 240 276 22,000  Level Moncton Center
03:15PM 47.1000 -67.1500 234° Southwest 250 288 22,000  Level Moncton Center
03:16PM 47.0667 -67.2500 244° Southwest 250 288 22,000  Level Moncton Center
03:17PM 47.0333 -67.3500 244° Southwest 240 276 22,000  Level Moncton Center
03:18PM 47.0172 -67.4139 250° West 253 291 22,000  Level Boston Center
03:19PM 46.9856 -67.5019 242° Southwest 253 291 22,000  Level Boston Center
03:20PM 46.9539 -67.5897 242° Southwest 253 291 22,000  Level Boston Center
03:21PM 46.9222 -67.6808 243° Southwest 248 285 22,000  Level Boston Center
03:22PM 46.8867 -67.7811 243° Southwest 248 285 22,000  Level Boston Center
03:23PM 46.8547 -67.8717 243° Southwest 248 285 22,000  Level Boston Center
03:24PM 46.8228 -67.9622 243° Southwest 248 285 22,000  Level Boston Center
03:25PM 46.7886 -68.0469 240° Southwest 261 300 22,000  Level Boston Center
03:26PM 46.7589 -68.1461 246° West 249 287 22,000  Level Boston Center
03:27PM 46.7328 -68.2331 246° West 243 280 22,000  Level Boston Center
03:28PM 46.7089 -68.3256 249° West 243 280 22,000  Level Boston Center
03:29PM 46.6808 -68.4125 245° Southwest 238 274 22,000  Level Boston Center
03:30PM 46.6544 -68.4989 246° West 238 274 22,000  Level Boston Center
03:31PM 46.6306 -68.5883 249° West 238 274 22,000  Level Boston Center
03:32PM 46.6022 -68.6778 245° Southwest 238 274 22,000  Level Boston Center
03:33PM 46.5814 -68.7486 247° West 238 274 22,000  Level Boston Center
03:34PM 46.5494 -68.8533 246° West 238 274 22,000  Level Boston Center
03:35PM 46.5231 -68.9456 247° West 238 274 22,000  Level Boston Center
03:36PM 46.4983 -69.0256 246° West 238 274 22,000  Level Boston Center
03:37PM 46.4717 -69.1144 246° West 238 274 22,000  Level Boston Center
03:38PM 46.4428 -69.2006 244° Southwest 238 274 22,000  Level Boston Center
03:39PM 46.4161 -69.2864 246° West 238 274 22,000  Level Boston Center
03:40PM 46.3892 -69.3722 246° West 238 274 22,000  Level Boston Center
03:41PM 46.3642 -69.4578 247° West 238 274 22,000  Level Boston Center
03:42PM 46.3375 -69.5464 246° West 238 274 22,000  Level Boston Center
03:43PM 46.3103 -69.6319 245° Southwest 238 274 22,000  Level Boston Center
03:44PM 46.2869 -69.7019 244° Southwest 238 274 22,000  Level Boston Center
03:45PM 46.2539 -69.8056 245° Southwest 238 274 22,000  Level Boston Center
03:46PM 46.2289 -69.8939 248° West 238 274 22,000  Level Boston Center
03:47PM 46.2014 -69.9789 245° Southwest 238 274 22,000  Level Boston Center
03:48PM 46.1722 -70.0672 245° Southwest 238 274 22,000  Level Boston Center
03:49PM 46.1386 -70.1675 244° Southwest 238 274 22,000  Level Boston Center
03:50PM 46.1167 -70.1833 207° Southwest 240 276 22,000  Level Montreal Center
03:51PM 46.1000 -70.2833 257° West 240 276 22,000  Level Montreal Center
03:52PM 46.0667 -70.3667 240° Southwest 240 276 22,000  Level Montreal Center
03:53PM 46.0333 -70.4667 244° Southwest 240 276 22,000  Level Montreal Center
03:54PM 46.0000 -70.5333 234° Southwest 230 265 22,000  Level Montreal Center
03:55PM 45.9833 -70.6333 257° West 230 265 22,000  Level Montreal Center
03:56PM 45.9500 -70.7167 240° Southwest 230 265 22,000  Level Montreal Center
03:57PM 45.9167 -70.7833 234° Southwest 230 265 22,000  Level Montreal Center
03:58PM 45.9000 -70.8833 257° West 230 265 22,000  Level Montreal Center
03:59PM 45.9000 -70.9833 270° West 230 265 22,000  Level Montreal Center
04:00PM 45.9000 -71.0500 270° West 230 265 22,000  Level Montreal Center
04:01PM 45.8833 -71.1500 257° West 230 265 22,000  Level Montreal Center
04:02PM 45.8667 -71.2500 257° West 230 265 22,000  Level Montreal Center
04:03PM 45.8833 -71.3500 283° West 230 265 22,000  Level Montreal Center
04:04PM 45.8667 -71.4167 250° West 230 265 22,000  Level Montreal Center
04:05PM 45.8500 -71.5167 257° West 230 265 22,000  Level Montreal Center
04:06PM 45.8333 -71.6167 257° West 230 265 22,000  Level Montreal Center
04:07PM 45.8500 -71.7000 286° West 230 265 22,000  Level Montreal Center
04:08PM 45.8333 -71.8000 257° West 230 265 22,000  Level Montreal Center
04:09PM 45.8167 -71.8833 254° West 230 265 22,000  Level Montreal Center
04:10PM 45.8000 -71.9833 257° West 230 265 22,000  Level Montreal Center
04:11PM 45.8000 -72.0667 270° West 230 265 22,000  Level Montreal Center
04:12PM 45.8000 -72.1667 270° West 230 265 22,000 -300 Level Montreal Center
04:13PM 45.7833 -72.2667 257° West 240 276 21,400 -1,020 Descending Montreal Center
04:14PM 45.7833 -72.3667 270° West 250 288 20,000 -1,380 Descending Montreal Center
04:15PM 45.7667 -72.4667 257° West 260 299 18,700 -1,440 Descending Montreal Center
04:16PM 45.7500 -72.5500 254° West 260 299 17,200 -1,440 Descending Montreal Center
04:17PM 45.7500 -72.6500 270° West 260 299 15,900 -1,320 Descending Montreal Center
04:18PM 45.7333 -72.7667 258° West 250 288 14,600 -1,320 Descending Montreal Center
04:19PM 45.7333 -72.8667 270° West 250 288 13,300 -1,320 Descending Montreal Center
04:20PM 45.7167 -72.9667 257° West 250 288 12,000 -1,200 Descending Montreal Center
04:21PM 45.7000 -73.0333 250° West 240 276 10,900 -1,200 Descending Montreal Center
04:22PM 45.6833 -73.1333 257° West 230 265 9,600 -1,500 Descending Montreal Center
04:23PM 45.6667 -73.2333 257° West 210 242 8,000 -1,560 Descending Montreal Center
04:24PM 45.6667 -73.3000 270° West 210 242 6,500 -1,500 Descending Montreal Center
04:25PM 45.6500 -73.4000 257° West 230 265 5,100 -1,140 Descending Montreal Center
04:26PM 45.6333 -73.5000 257° West 230 265 4,300 -840 Descending Montreal Center
04:27PM 45.6000 -73.5667 234° Southwest 230 265 3,500 -960 Descending Montreal Center
04:28PM 45.5500 -73.6167 215° Southwest 180 207 2,400 -1,020 Descending Montreal Center
04:29PM 45.5167 -73.6667 226° Southwest 180 207 1,500 -900 Descending Montreal Center
04:30PM 45.4833 -73.7000 215° Southwest 140 161 600 -720 Descending Montreal Center
04:31PM 45.4667 -73.7167 215° Southwest 120 138 100 -300 Descending Montreal Center
04:32PM 45.4500 -73.7500 235° Southwest 50 58 100  Level Montreal Center